sensor_id;sensor_type;location;lat;lon;timestamp;P1;durP1;ratioP1;P2;durP2;ratioP2
21663;SDS011;10993;52.510;13.456;2023-02-11T00:00:54;32.07;;;13.93;;
21663;SDS011;10993;52.510;13.456;2023-02-11T00:05:57;33.03;;;13.83;;
21663;SDS011;10993;52.510;13.456;2023-02-11T00:10:58;37.07;;;14.80;;
21663;SDS011;10993;52.510;13.456;2023-02-11T00:16:04;35.80;;;14.40;;
21663;SDS011;10993;52.510;13.456;2023-02-11T00:21:06;36.63;;;13.40;;
21663;SDS011;10993;52.510;13.456;2023-02-11T00:26:13;30.03;;;12.40;;
21663;SDS011;10993;52.510;13.456;2023-02-11T00:31:16;39.27;;;13.57;;
21663;SDS011;10993;52.510;13.456;2023-02-11T00:36:18;32.73;;;13.73;;
21663;SDS011;10993;52.510;13.456;2023-02-11T00:41:21;35.83;;;13.37;;
21663;SDS011;10993;52.510;13.456;2023-02-11T00:46:24;33.83;;;13.87;;
21663;SDS011;10993;52.510;13.456;2023-02-11T00:51:24;32.07;;;13.97;;
21663;SDS011;10993;52.510;13.456;2023-02-11T00:56:25;33.83;;;14.10;;
21663;SDS011;10993;52.510;13.456;2023-02-11T01:01:27;28.63;;;12.00;;
21663;SDS011;10993;52.510;13.456;2023-02-11T01:06:27;37.63;;;15.37;;
21663;SDS011;10993;52.510;13.456;2023-02-11T01:11:28;32.97;;;12.37;;
21663;SDS011;10993;52.510;13.456;2023-02-11T01:16:29;31.13;;;13.93;;
21663;SDS011;10993;52.510;13.456;2023-02-11T01:21:30;37.00;;;14.40;;
21663;SDS011;10993;52.510;13.456;2023-02-11T01:26:30;35.10;;;14.87;;
21663;SDS011;10993;52.510;13.456;2023-02-11T01:31:32;32.87;;;12.10;;
21663;SDS011;10993;52.510;13.456;2023-02-11T01:36:32;35.13;;;14.43;;
21663;SDS011;10993;52.510;13.456;2023-02-11T01:41:33;32.83;;;14.03;;
21663;SDS011;10993;52.510;13.456;2023-02-11T01:46:36;30.57;;;13.07;;
21663;SDS011;10993;52.510;13.456;2023-02-11T01:51:37;36.53;;;13.97;;
21663;SDS011;10993;52.510;13.456;2023-02-11T01:56:41;32.67;;;13.73;;
21663;SDS011;10993;52.510;13.456;2023-02-11T02:02:07;37.90;;;13.77;;
21663;SDS011;10993;52.510;13.456;2023-02-11T02:07:11;32.57;;;13.10;;
21663;SDS011;10993;52.510;13.456;2023-02-11T02:12:16;28.35;;;13.15;;
21663;SDS011;10993;52.510;13.456;2023-02-11T02:17:25;35.10;;;13.97;;
21663;SDS011;10993;52.510;13.456;2023-02-11T02:22:43;27.70;;;12.73;;
21663;SDS011;10993;52.510;13.456;2023-02-11T02:28:01;30.17;;;12.57;;
21663;SDS011;10993;52.510;13.456;2023-02-11T02:33:20;27.27;;;12.67;;
21663;SDS011;10993;52.510;13.456;2023-02-11T02:38:29;32.33;;;13.30;;
21663;SDS011;10993;52.510;13.456;2023-02-11T02:43:32;31.47;;;12.53;;
21663;SDS011;10993;52.510;13.456;2023-02-11T02:48:36;32.17;;;12.93;;
21663;SDS011;10993;52.510;13.456;2023-02-11T02:53:39;30.02;;;12.75;;
21663;SDS011;10993;52.510;13.456;2023-02-11T02:58:59;30.20;;;12.88;;
21663;SDS011;10993;52.510;13.456;2023-02-11T03:04:17;33.97;;;14.20;;
21663;SDS011;10993;52.510;13.456;2023-02-11T03:09:25;34.38;;;14.05;;
21663;SDS011;10993;52.510;13.456;2023-02-11T03:14:31;26.60;;;13.00;;
21663;SDS011;10993;52.510;13.456;2023-02-11T03:19:34;37.35;;;13.73;;
21663;SDS011;10993;52.510;13.456;2023-02-11T03:24:37;31.65;;;13.88;;
21663;SDS011;10993;52.510;13.456;2023-02-11T03:29:40;31.33;;;14.25;;
21663;SDS011;10993;52.510;13.456;2023-02-11T03:34:51;31.70;;;14.37;;
21663;SDS011;10993;52.510;13.456;2023-02-11T03:39:55;37.13;;;14.10;;
21663;SDS011;10993;52.510;13.456;2023-02-11T03:44:59;36.10;;;14.43;;
21663;SDS011;10993;52.510;13.456;2023-02-11T03:50:06;30.17;;;14.60;;
21663;SDS011;10993;52.510;13.456;2023-02-11T03:55:11;32.78;;;14.55;;
21663;SDS011;10993;52.510;13.456;2023-02-11T04:00:16;33.50;;;14.67;;
21663;SDS011;10993;52.510;13.456;2023-02-11T04:05:18;29.30;;;13.20;;
21663;SDS011;10993;52.510;13.456;2023-02-11T04:10:19;37.27;;;14.83;;
21663;SDS011;10993;52.510;13.456;2023-02-11T04:15:20;30.50;;;13.43;;
21663;SDS011;10993;52.510;13.456;2023-02-11T04:20:22;35.70;;;14.90;;
21663;SDS011;10993;52.510;13.456;2023-02-11T04:25:22;40.70;;;16.30;;
21663;SDS011;10993;52.510;13.456;2023-02-11T04:30:23;34.33;;;14.67;;
21663;SDS011;10993;52.510;13.456;2023-02-11T04:35:24;36.03;;;16.10;;
21663;SDS011;10993;52.510;13.456;2023-02-11T04:40:25;30.43;;;14.37;;
21663;SDS011;10993;52.510;13.456;2023-02-11T04:45:25;39.38;;;15.75;;
21663;SDS011;10993;52.510;13.456;2023-02-11T04:50:27;30.80;;;14.20;;
21663;SDS011;10993;52.510;13.456;2023-02-11T04:55:27;34.05;;;13.88;;
21663;SDS011;10993;52.510;13.456;2023-02-11T05:00:27;35.60;;;15.77;;
21663;SDS011;10993;52.510;13.456;2023-02-11T05:05:29;42.63;;;16.42;;
21663;SDS011;10993;52.510;13.456;2023-02-11T05:10:29;35.90;;;16.30;;
21663;SDS011;10993;52.510;13.456;2023-02-11T05:15:30;39.08;;;16.27;;
21663;SDS011;10993;52.510;13.456;2023-02-11T05:20:32;37.30;;;16.13;;
21663;SDS011;10993;52.510;13.456;2023-02-11T05:25:32;36.93;;;15.73;;
21663;SDS011;10993;52.510;13.456;2023-02-11T05:30:32;37.15;;;16.15;;
21663;SDS011;10993;52.510;13.456;2023-02-11T05:35:34;38.00;;;15.60;;
21663;SDS011;10993;52.510;13.456;2023-02-11T05:40:34;37.30;;;15.77;;
21663;SDS011;10993;52.510;13.456;2023-02-11T05:45:35;39.08;;;16.55;;
21663;SDS011;10993;52.510;13.456;2023-02-11T05:50:36;37.00;;;17.10;;
21663;SDS011;10993;52.510;13.456;2023-02-11T05:55:37;38.27;;;17.63;;
21663;SDS011;10993;52.510;13.456;2023-02-11T06:00:37;35.53;;;15.80;;
21663;SDS011;10993;52.510;13.456;2023-02-11T06:05:40;36.17;;;16.90;;
21663;SDS011;10993;52.510;13.456;2023-02-11T06:10:43;44.87;;;17.70;;
21663;SDS011;10993;52.510;13.456;2023-02-11T06:15:44;38.07;;;16.50;;
21663;SDS011;10993;52.510;13.456;2023-02-11T06:20:45;41.70;;;18.50;;
21663;SDS011;10993;52.510;13.456;2023-02-11T06:25:46;40.93;;;16.47;;
21663;SDS011;10993;52.510;13.456;2023-02-11T06:30:46;44.23;;;18.00;;
21663;SDS011;10993;52.510;13.456;2023-02-11T06:35:48;43.70;;;17.30;;
21663;SDS011;10993;52.510;13.456;2023-02-11T06:40:48;37.03;;;17.17;;
21663;SDS011;10993;52.510;13.456;2023-02-11T06:45:51;46.70;;;16.88;;
21663;SDS011;10993;52.510;13.456;2023-02-11T06:50:53;42.63;;;16.83;;
21663;SDS011;10993;52.510;13.456;2023-02-11T06:55:53;50.30;;;18.53;;
21663;SDS011;10993;52.510;13.456;2023-02-11T07:00:54;40.37;;;18.97;;
21663;SDS011;10993;52.510;13.456;2023-02-11T07:05:55;46.03;;;18.55;;
21663;SDS011;10993;52.510;13.456;2023-02-11T07:10:56;40.90;;;17.90;;
21663;SDS011;10993;52.510;13.456;2023-02-11T07:15:56;43.63;;;17.08;;
21663;SDS011;10993;52.510;13.456;2023-02-11T07:20:57;45.20;;;17.42;;
21663;SDS011;10993;52.510;13.456;2023-02-11T07:26:00;44.60;;;17.67;;
21663;SDS011;10993;52.510;13.456;2023-02-11T07:31:04;47.83;;;19.05;;
21663;SDS011;10993;52.510;13.456;2023-02-11T07:36:07;49.37;;;20.07;;
21663;SDS011;10993;52.510;13.456;2023-02-11T07:41:10;46.40;;;18.90;;
21663;SDS011;10993;52.510;13.456;2023-02-11T07:46:12;40.08;;;18.38;;
21663;SDS011;10993;52.510;13.456;2023-02-11T07:51:17;40.97;;;17.73;;
21663;SDS011;10993;52.510;13.456;2023-02-11T07:56:19;39.78;;;18.52;;
21663;SDS011;10993;52.510;13.456;2023-02-11T08:01:23;43.15;;;19.35;;
21663;SDS011;10993;52.510;13.456;2023-02-11T08:06:28;47.45;;;18.50;;
21663;SDS011;10993;52.510;13.456;2023-02-11T08:11:30;43.92;;;18.55;;
21663;SDS011;10993;52.510;13.456;2023-02-11T08:16:31;39.20;;;16.17;;
21663;SDS011;10993;52.510;13.456;2023-02-11T08:21:35;40.88;;;17.80;;
21663;SDS011;10993;52.510;13.456;2023-02-11T08:26:36;38.42;;;17.63;;
21663;SDS011;10993;52.510;13.456;2023-02-11T08:31:37;44.38;;;16.90;;
21663;SDS011;10993;52.510;13.456;2023-02-11T08:36:41;40.63;;;18.45;;
21663;SDS011;10993;52.510;13.456;2023-02-11T08:41:41;43.50;;;17.85;;
21663;SDS011;10993;52.510;13.456;2023-02-11T08:46:42;41.55;;;15.73;;
21663;SDS011;10993;52.510;13.456;2023-02-11T08:51:44;37.83;;;16.75;;
21663;SDS011;10993;52.510;13.456;2023-02-11T08:56:49;38.40;;;16.73;;
21663;SDS011;10993;52.510;13.456;2023-02-11T09:01:50;42.67;;;17.80;;
21663;SDS011;10993;52.510;13.456;2023-02-11T09:06:52;36.42;;;15.65;;
21663;SDS011;10993;52.510;13.456;2023-02-11T09:11:52;37.13;;;17.50;;
21663;SDS011;10993;52.510;13.456;2023-02-11T09:16:56;36.65;;;15.68;;
21663;SDS011;10993;52.510;13.456;2023-02-11T09:21:58;41.05;;;16.88;;
21663;SDS011;10993;52.510;13.456;2023-02-11T09:26:58;35.50;;;16.15;;
21663;SDS011;10993;52.510;13.456;2023-02-11T09:31:58;38.15;;;16.13;;
21663;SDS011;10993;52.510;13.456;2023-02-11T09:37:00;35.90;;;16.13;;
21663;SDS011;10993;52.510;13.456;2023-02-11T09:47:37;36.20;;;14.65;;
21663;SDS011;10993;52.510;13.456;2023-02-11T09:52:48;38.63;;;15.88;;
21663;SDS011;10993;52.510;13.456;2023-02-11T09:57:54;34.47;;;15.88;;
21663;SDS011;10993;52.510;13.456;2023-02-11T10:03:13;32.03;;;14.73;;
21663;SDS011;10993;52.510;13.456;2023-02-11T10:08:27;36.40;;;15.63;;
21663;SDS011;10993;52.510;13.456;2023-02-11T10:13:39;32.63;;;14.93;;
21663;SDS011;10993;52.510;13.456;2023-02-11T10:18:50;37.15;;;15.18;;
21663;SDS011;10993;52.510;13.456;2023-02-11T10:24:08;36.40;;;15.85;;
21663;SDS011;10993;52.510;13.456;2023-02-11T10:29:13;42.22;;;15.95;;
21663;SDS011;10993;52.510;13.456;2023-02-11T10:34:42;40.53;;;16.33;;
21663;SDS011;10993;52.510;13.456;2023-02-11T10:39:44;32.42;;;13.80;;
21663;SDS011;10993;52.510;13.456;2023-02-11T10:44:56;32.22;;;14.23;;
21663;SDS011;10993;52.510;13.456;2023-02-11T10:49:59;33.58;;;14.95;;
21663;SDS011;10993;52.510;13.456;2023-02-11T10:55:05;29.38;;;14.05;;
21663;SDS011;10993;52.510;13.456;2023-02-11T11:00:19;34.25;;;13.95;;
21663;SDS011;10993;52.510;13.456;2023-02-11T11:05:35;32.70;;;14.52;;
21663;SDS011;10993;52.510;13.456;2023-02-11T11:10:46;29.83;;;13.77;;
21663;SDS011;10993;52.510;13.456;2023-02-11T11:15:48;28.77;;;13.85;;
21663;SDS011;10993;52.510;13.456;2023-02-11T11:21:11;28.50;;;12.93;;
21663;SDS011;10993;52.510;13.456;2023-02-11T11:26:18;28.38;;;12.90;;
21663;SDS011;10993;52.510;13.456;2023-02-11T11:31:20;28.70;;;11.57;;
21663;SDS011;10993;52.510;13.456;2023-02-11T11:36:24;25.67;;;11.90;;
21663;SDS011;10993;52.510;13.456;2023-02-11T11:41:34;25.42;;;11.32;;
21663;SDS011;10993;52.510;13.456;2023-02-11T11:46:35;24.85;;;10.90;;
21663;SDS011;10993;52.510;13.456;2023-02-11T11:51:40;25.58;;;11.15;;
21663;SDS011;10993;52.510;13.456;2023-02-11T11:56:49;21.10;;;10.70;;
21663;SDS011;10993;52.510;13.456;2023-02-11T12:01:59;30.80;;;12.25;;
21663;SDS011;10993;52.510;13.456;2023-02-11T12:07:19;23.40;;;11.50;;
21663;SDS011;10993;52.510;13.456;2023-02-11T12:12:36;22.73;;;10.10;;
21663;SDS011;10993;52.510;13.456;2023-02-11T12:17:57;26.55;;;10.85;;
21663;SDS011;10993;52.510;13.456;2023-02-11T12:23:14;28.63;;;11.93;;
21663;SDS011;10993;52.510;13.456;2023-02-11T12:28:30;21.00;;;10.13;;
21663;SDS011;10993;52.510;13.456;2023-02-11T12:33:43;19.13;;;9.73;;
21663;SDS011;10993;52.510;13.456;2023-02-11T12:39:06;21.42;;;9.43;;
21663;SDS011;10993;52.510;13.456;2023-02-11T12:44:19;22.27;;;10.45;;
21663;SDS011;10993;52.510;13.456;2023-02-11T12:49:44;23.60;;;10.50;;
21663;SDS011;10993;52.510;13.456;2023-02-11T12:54:55;22.75;;;10.60;;
21663;SDS011;10993;52.510;13.456;2023-02-11T13:00:02;23.30;;;11.20;;
21663;SDS011;10993;52.510;13.456;2023-02-11T13:05:08;16.10;;;8.32;;
21663;SDS011;10993;52.510;13.456;2023-02-11T13:10:22;16.33;;;8.60;;
21663;SDS011;10993;52.510;13.456;2023-02-11T13:15:27;20.90;;;9.48;;
21663;SDS011;10993;52.510;13.456;2023-02-11T13:20:31;17.65;;;8.75;;
21663;SDS011;10993;52.510;13.456;2023-02-11T13:25:41;17.40;;;9.35;;
21663;SDS011;10993;52.510;13.456;2023-02-11T13:30:51;18.50;;;9.45;;
21663;SDS011;10993;52.510;13.456;2023-02-11T13:41:25;22.10;;;9.95;;
21663;SDS011;10993;52.510;13.456;2023-02-11T13:51:52;25.48;;;10.93;;
21663;SDS011;10993;52.510;13.456;2023-02-11T14:02:32;18.63;;;9.02;;
21663;SDS011;10993;52.510;13.456;2023-02-11T14:08:10;17.50;;;8.85;;
21663;SDS011;10993;52.510;13.456;2023-02-11T14:13:33;18.25;;;8.63;;
21663;SDS011;10993;52.510;13.456;2023-02-11T14:18:56;23.55;;;9.93;;
21663;SDS011;10993;52.510;13.456;2023-02-11T14:29:33;16.67;;;9.15;;
21663;SDS011;10993;52.510;13.456;2023-02-11T14:34:41;15.73;;;8.82;;
21663;SDS011;10993;52.510;13.456;2023-02-11T14:39:55;25.33;;;11.02;;
21663;SDS011;10993;52.510;13.456;2023-02-11T14:45:05;15.43;;;8.20;;
21663;SDS011;10993;52.510;13.456;2023-02-11T14:50:14;17.83;;;8.43;;
21663;SDS011;10993;52.510;13.456;2023-02-11T14:55:23;16.15;;;8.45;;
21663;SDS011;10993;52.510;13.456;2023-02-11T15:00:28;15.80;;;7.70;;
21663;SDS011;10993;52.510;13.456;2023-02-11T15:05:30;14.20;;;7.95;;
21663;SDS011;10993;52.510;13.456;2023-02-11T15:10:31;15.45;;;8.02;;
21663;SDS011;10993;52.510;13.456;2023-02-11T15:15:34;12.60;;;7.68;;
21663;SDS011;10993;52.510;13.456;2023-02-11T15:20:40;13.63;;;6.88;;
21663;SDS011;10993;52.510;13.456;2023-02-11T15:25:41;12.40;;;6.82;;
21663;SDS011;10993;52.510;13.456;2023-02-11T15:30:44;13.25;;;5.90;;
21663;SDS011;10993;52.510;13.456;2023-02-11T15:35:46;13.00;;;6.35;;
21663;SDS011;10993;52.510;13.456;2023-02-11T15:40:51;11.07;;;6.05;;
21663;SDS011;10993;52.510;13.456;2023-02-11T15:45:53;15.70;;;6.57;;
21663;SDS011;10993;52.510;13.456;2023-02-11T15:51:01;12.80;;;6.05;;
21663;SDS011;10993;52.510;13.456;2023-02-11T15:56:08;11.30;;;5.15;;
21663;SDS011;10993;52.510;13.456;2023-02-11T16:01:11;9.23;;;5.47;;
21663;SDS011;10993;52.510;13.456;2023-02-11T16:06:18;9.35;;;4.65;;
21663;SDS011;10993;52.510;13.456;2023-02-11T16:11:22;10.90;;;5.80;;
21663;SDS011;10993;52.510;13.456;2023-02-11T16:16:26;9.60;;;5.65;;
21663;SDS011;10993;52.510;13.456;2023-02-11T16:21:32;11.55;;;5.68;;
21663;SDS011;10993;52.510;13.456;2023-02-11T16:26:35;10.82;;;4.95;;
21663;SDS011;10993;52.510;13.456;2023-02-11T16:31:42;12.80;;;5.88;;
21663;SDS011;10993;52.510;13.456;2023-02-11T16:36:46;9.70;;;5.18;;
21663;SDS011;10993;52.510;13.456;2023-02-11T16:41:47;12.25;;;6.53;;
21663;SDS011;10993;52.510;13.456;2023-02-11T16:46:51;13.35;;;5.68;;
21663;SDS011;10993;52.510;13.456;2023-02-11T16:51:55;12.60;;;6.22;;
21663;SDS011;10993;52.510;13.456;2023-02-11T16:57:00;9.98;;;4.70;;
21663;SDS011;10993;52.510;13.456;2023-02-11T17:02:04;12.48;;;4.30;;
21663;SDS011;10993;52.510;13.456;2023-02-11T17:07:14;11.10;;;4.93;;
21663;SDS011;10993;52.510;13.456;2023-02-11T17:12:14;12.80;;;5.90;;
21663;SDS011;10993;52.510;13.456;2023-02-11T17:17:14;9.90;;;5.20;;
21663;SDS011;10993;52.510;13.456;2023-02-11T17:22:16;12.48;;;5.38;;
21663;SDS011;10993;52.510;13.456;2023-02-11T17:27:17;11.95;;;5.88;;
21663;SDS011;10993;52.510;13.456;2023-02-11T17:32:17;10.52;;;4.95;;
21663;SDS011;10993;52.510;13.456;2023-02-11T17:37:19;10.48;;;4.95;;
21663;SDS011;10993;52.510;13.456;2023-02-11T17:42:20;11.60;;;5.03;;
21663;SDS011;10993;52.510;13.456;2023-02-11T17:47:20;11.98;;;5.28;;
21663;SDS011;10993;52.510;13.456;2023-02-11T17:52:22;10.57;;;5.15;;
21663;SDS011;10993;52.510;13.456;2023-02-11T17:57:23;9.70;;;4.80;;
21663;SDS011;10993;52.510;13.456;2023-02-11T18:02:23;9.23;;;4.78;;
21663;SDS011;10993;52.510;13.456;2023-02-11T18:07:25;10.20;;;5.07;;
21663;SDS011;10993;52.510;13.456;2023-02-11T18:12:25;11.38;;;5.22;;
21663;SDS011;10993;52.510;13.456;2023-02-11T18:17:26;10.20;;;5.43;;
21663;SDS011;10993;52.510;13.456;2023-02-11T18:22:28;8.93;;;4.63;;
21663;SDS011;10993;52.510;13.456;2023-02-11T18:27:32;9.38;;;4.85;;
21663;SDS011;10993;52.510;13.456;2023-02-11T18:32:33;13.25;;;5.25;;
21663;SDS011;10993;52.510;13.456;2023-02-11T18:37:35;12.40;;;5.30;;
21663;SDS011;10993;52.510;13.456;2023-02-11T18:42:35;16.48;;;7.78;;
21663;SDS011;10993;52.510;13.456;2023-02-11T18:47:36;13.45;;;6.35;;
21663;SDS011;10993;52.510;13.456;2023-02-11T18:52:38;13.05;;;5.35;;
21663;SDS011;10993;52.510;13.456;2023-02-11T18:57:38;8.23;;;4.75;;
21663;SDS011;10993;52.510;13.456;2023-02-11T19:02:39;10.35;;;4.45;;
21663;SDS011;10993;52.510;13.456;2023-02-11T19:07:41;11.18;;;4.82;;
21663;SDS011;10993;52.510;13.456;2023-02-11T19:12:41;10.05;;;5.10;;
21663;SDS011;10993;52.510;13.456;2023-02-11T19:17:42;9.93;;;4.65;;
21663;SDS011;10993;52.510;13.456;2023-02-11T19:22:43;9.45;;;4.15;;
21663;SDS011;10993;52.510;13.456;2023-02-11T19:27:44;9.82;;;4.40;;
21663;SDS011;10993;52.510;13.456;2023-02-11T19:32:44;9.70;;;4.78;;
21663;SDS011;10993;52.510;13.456;2023-02-11T19:37:46;10.75;;;4.68;;
21663;SDS011;10993;52.510;13.456;2023-02-11T19:42:46;11.35;;;5.43;;
21663;SDS011;10993;52.510;13.456;2023-02-11T19:47:47;10.30;;;5.13;;
21663;SDS011;10993;52.510;13.456;2023-02-11T19:52:48;10.88;;;4.82;;
21663;SDS011;10993;52.510;13.456;2023-02-11T19:57:49;9.40;;;4.45;;
21663;SDS011;10993;52.510;13.456;2023-02-11T20:02:49;9.30;;;4.70;;
21663;SDS011;10993;52.510;13.456;2023-02-11T20:07:51;10.70;;;5.15;;
21663;SDS011;10993;52.510;13.456;2023-02-11T20:12:51;18.58;;;10.10;;
21663;SDS011;10993;52.510;13.456;2023-02-11T20:17:52;29.58;;;15.45;;
21663;SDS011;10993;52.510;13.456;2023-02-11T20:22:53;10.45;;;4.88;;
21663;SDS011;10993;52.510;13.456;2023-02-11T20:27:54;13.48;;;6.22;;
21663;SDS011;10993;52.510;13.456;2023-02-11T20:32:54;9.70;;;4.93;;
21663;SDS011;10993;52.510;13.456;2023-02-11T20:37:56;10.43;;;5.10;;
21663;SDS011;10993;52.510;13.456;2023-02-11T20:42:56;9.02;;;4.57;;
21663;SDS011;10993;52.510;13.456;2023-02-11T20:47:57;11.95;;;5.40;;
21663;SDS011;10993;52.510;13.456;2023-02-11T20:52:58;9.68;;;4.95;;
21663;SDS011;10993;52.510;13.456;2023-02-11T20:57:59;8.10;;;4.47;;
21663;SDS011;10993;52.510;13.456;2023-02-11T21:02:59;12.65;;;5.60;;
21663;SDS011;10993;52.510;13.456;2023-02-11T21:08:01;8.70;;;4.45;;
21663;SDS011;10993;52.510;13.456;2023-02-11T21:13:01;9.65;;;3.92;;
21663;SDS011;10993;52.510;13.456;2023-02-11T21:18:02;13.55;;;4.72;;
21663;SDS011;10993;52.510;13.456;2023-02-11T21:23:03;9.57;;;4.22;;
21663;SDS011;10993;52.510;13.456;2023-02-11T21:28:04;16.65;;;7.70;;
21663;SDS011;10993;52.510;13.456;2023-02-11T21:33:05;9.43;;;3.88;;
21663;SDS011;10993;52.510;13.456;2023-02-11T21:38:07;8.80;;;3.95;;
21663;SDS011;10993;52.510;13.456;2023-02-11T21:43:07;10.45;;;3.88;;
21663;SDS011;10993;52.510;13.456;2023-02-11T21:48:07;8.48;;;3.88;;
21663;SDS011;10993;52.510;13.456;2023-02-11T21:53:09;8.63;;;3.88;;
21663;SDS011;10993;52.510;13.456;2023-02-11T21:58:11;9.80;;;3.60;;
21663;SDS011;10993;52.510;13.456;2023-02-11T22:03:12;12.07;;;3.45;;
21663;SDS011;10993;52.510;13.456;2023-02-11T22:08:13;7.68;;;3.30;;
21663;SDS011;10993;52.510;13.456;2023-02-11T22:13:14;11.90;;;3.55;;
21663;SDS011;10993;52.510;13.456;2023-02-11T22:18:14;7.72;;;3.13;;
21663;SDS011;10993;52.510;13.456;2023-02-11T22:23:16;9.05;;;4.07;;
21663;SDS011;10993;52.510;13.456;2023-02-11T22:28:16;9.52;;;3.67;;
21663;SDS011;10993;52.510;13.456;2023-02-11T22:33:17;15.70;;;7.05;;
21663;SDS011;10993;52.510;13.456;2023-02-11T22:38:18;14.02;;;5.18;;
21663;SDS011;10993;52.510;13.456;2023-02-11T22:43:19;15.77;;;7.65;;
21663;SDS011;10993;52.510;13.456;2023-02-11T22:48:19;13.63;;;5.03;;
21663;SDS011;10993;52.510;13.456;2023-02-11T22:53:21;12.23;;;5.00;;
21663;SDS011;10993;52.510;13.456;2023-02-11T22:58:24;11.82;;;4.65;;
21663;SDS011;10993;52.510;13.456;2023-02-11T23:03:24;12.00;;;5.55;;
21663;SDS011;10993;52.510;13.456;2023-02-11T23:08:26;8.90;;;4.18;;
21663;SDS011;10993;52.510;13.456;2023-02-11T23:13:27;8.10;;;3.85;;
21663;SDS011;10993;52.510;13.456;2023-02-11T23:18:28;9.60;;;4.43;;
21663;SDS011;10993;52.510;13.456;2023-02-11T23:23:30;12.88;;;4.75;;
21663;SDS011;10993;52.510;13.456;2023-02-11T23:28:30;17.40;;;5.72;;
21663;SDS011;10993;52.510;13.456;2023-02-11T23:33:30;9.60;;;4.25;;
21663;SDS011;10993;52.510;13.456;2023-02-11T23:38:32;12.35;;;4.00;;
21663;SDS011;10993;52.510;13.456;2023-02-11T23:43:32;8.82;;;4.20;;
21663;SDS011;10993;52.510;13.456;2023-02-11T23:48:33;16.58;;;5.60;;
21663;SDS011;10993;52.510;13.456;2023-02-11T23:53:36;14.18;;;4.68;;
21663;SDS011;10993;52.510;13.456;2023-02-11T23:58:37;29.33;;;11.90;;
